createdAt,value
2022-10-08T00:08:16.195Z,88.71
2022-10-08T00:23:16.231Z,87.22
2022-10-08T00:38:16.382Z,83.55
2022-10-08T00:53:16.491Z,83.20
2022-10-08T01:08:16.615Z,83.00
2022-10-08T01:23:16.721Z,83.00
2022-10-08T01:38:16.978Z,81.40
2022-10-08T01:53:17.044Z,80.99
2022-10-08T02:08:17.101Z,84.63
2022-10-08T02:23:17.219Z,82.07
2022-10-08T02:38:17.364Z,80.04
2022-10-08T02:53:17.474Z,76.84
2022-10-08T03:08:18.102Z,76.29
2022-10-08T03:23:18.182Z,77.63
2022-10-08T03:38:18.261Z,77.77
2022-10-08T03:53:18.416Z,76.60
2022-10-08T04:08:18.516Z,76.29
2022-10-08T04:23:18.635Z,77.84
2022-10-08T04:38:18.755Z,78.35
2022-10-08T04:53:18.866Z,78.94
2022-10-08T05:08:18.989Z,79.15
2022-10-08T05:23:20.393Z,79.80
2022-10-08T05:38:20.983Z,77.74
2022-10-08T05:53:21.072Z,80.32
2022-10-08T06:08:21.432Z,83.12
2022-10-08T06:23:21.933Z,79.16
2022-10-08T06:38:22.308Z,78.13
2022-10-08T06:53:22.427Z,73.10
2022-10-08T07:08:22.371Z,78.74
2022-10-08T07:23:22.925Z,91.64
2022-10-08T08:14:51.864Z,90.54
2022-10-08T08:29:51.946Z,85.50
2022-10-08T08:44:52.050Z,87.58
2022-10-08T08:59:52.187Z,87.87
2022-10-08T09:14:52.273Z,91.96
2022-10-08T09:29:52.457Z,92.86
2022-10-08T09:44:52.526Z,94.02
2022-10-08T09:59:52.674Z,93.71
2022-10-08T10:14:53.230Z,93.83
2022-10-08T10:29:53.833Z,95.94
2022-10-08T10:44:54.438Z,95.99
2022-10-08T10:59:55.029Z,94.53
2022-10-08T11:14:55.173Z,93.67
2022-10-08T11:29:55.209Z,92.36
2022-10-08T11:44:55.321Z,91.00
2022-10-08T11:59:55.442Z,89.79
2022-10-08T12:14:55.575Z,91.11
2022-10-08T12:29:55.674Z,86.53
2022-10-08T12:44:56.306Z,77.31
2022-10-08T12:59:56.861Z,75.46
2022-10-08T13:14:57.006Z,74.56
2022-10-08T13:29:57.105Z,71.91
2022-10-08T13:44:57.207Z,70.26
2022-10-08T13:59:57.283Z,70.56
2022-10-08T14:14:57.545Z,70.22
2022-10-08T14:29:57.516Z,72.17
2022-10-08T14:44:57.614Z,73.79
2022-10-08T14:59:57.662Z,72.65
2022-10-08T15:14:57.769Z,79.32
2022-10-08T15:29:57.892Z,84.38
2022-10-08T15:44:57.991Z,87.10
2022-10-08T15:59:58.100Z,88.36
2022-10-08T16:14:58.215Z,88.10
2022-10-08T16:29:58.275Z,92.32
2022-10-08T16:44:58.881Z,97.14
2022-10-08T16:59:59.008Z,99.99
2022-10-08T17:14:59.107Z,99.99
2022-10-08T17:29:59.209Z,99.99
2022-10-08T17:44:59.353Z,99.99
2022-10-08T17:59:59.418Z,99.99
2022-10-08T18:15:00.020Z,99.99
2022-10-08T18:30:00.603Z,99.99
2022-10-08T18:45:00.748Z,99.99
2022-10-08T19:00:01.379Z,99.99
2022-10-08T19:15:01.456Z,99.99
2022-10-08T19:30:01.561Z,99.99
2022-10-08T19:45:01.676Z,99.99
2022-10-08T20:00:01.797Z,99.99
2022-10-08T20:15:02.461Z,99.99
2022-10-08T20:30:02.554Z,99.99
2022-10-08T20:45:02.700Z,99.99
2022-10-08T21:00:02.770Z,99.99
2022-10-08T21:15:02.875Z,99.33
2022-10-08T21:30:02.988Z,98.91
2022-10-08T21:45:03.109Z,97.36
2022-10-08T22:00:03.248Z,96.12
2022-10-08T22:15:03.852Z,94.93
2022-10-08T22:30:03.964Z,95.08
2022-10-08T22:45:04.193Z,94.26
2022-10-08T23:00:04.208Z,90.86
2022-10-08T23:15:04.322Z,91.17
2022-10-08T23:30:04.512Z,92.86
2022-10-08T23:45:04.512Z,88.23
